West Bend, WI

1:18 AM CDT on April 21, 2018 (GMT -0500)
West Bend Municipal

Weather History for KETB - December, 2012

Change the Weather History Date:

Monday, December 17, 2012

  Actual Average Record
Temperature  
Mean Temperature 32 °F -  
Max Temperature 35 °F 29 °F 50 °F (1939)
Min Temperature 28 °F 15 °F -13 °F (1972)
Degree Days  
Heating Degree Days 34    
Moisture  
Dew Point 27 °F    
Average Humidity 83    
Maximum Humidity 93    
Minimum Humidity 75    
Precipitation  
Precipitation 0.00 in - - ()
Sea Level Pressure  
Sea Level Pressure 29.69 in    
Wind  
Wind Speed 7 mph (WNW)    
Max Wind Speed 10 mph    
Max Gust Speed 16 mph    
Visibility 10 miles    
Events      
Averages and records for this station are not official NWS values.
T = Trace of Precipitation, MM = Missing Value Source: NWS Daily Summary

Daily Weather History Graph

Daily Weather History Graph

Search for Another Location

Airport or City:

Astronomy

Dec. 17, 2012 Rise Set
Actual Time 7:20 AM CST 4:17 PM CST
Civil Twilight 6:47 AM CST 4:50 PM CST
Nautical Twilight 6:11 AM CST 5:26 PM CST
Astronomical Twilight 5:36 AM CST 6:01 PM CST
Moon 10:21 AM CST (12/17) 9:47 PM CST (12/17)
Length of Visible Light 10h 03m
Length of Day
8h 57m
Waxing Crescent, 25% of the Moon is Illuminated
Dec 17
Waxing Crescent
Dec 19
First Quarter
Dec 28
Full
Jan 4
Last Quarter
Jan 11
New

Hourly Weather History & Observations

Time (CST) Temp. Windchill Dew Point Humidity Pressure Visibility Wind Dir Wind Speed Gust Speed Precip Events Conditions
12:15 AM 35.6 °F 30.7 °F 32.0 °F 87% 29.68 in 10.0 mi West 5.8 mph - N/A   Overcast
12:35 AM 35.6 °F 29.9 °F 32.0 °F 87% 29.68 in 10.0 mi WSW 6.9 mph - N/A   Overcast
12:55 AM 35.6 °F 29.2 °F 32.0 °F 87% 29.68 in 10.0 mi West 8.1 mph - N/A   Overcast
1:15 AM 35.6 °F 29.2 °F 32.0 °F 87% 29.68 in 10.0 mi West 8.1 mph - N/A   Overcast
1:35 AM 35.6 °F 29.2 °F 32.0 °F 87% 29.68 in 10.0 mi West 8.1 mph - N/A   Overcast
1:55 AM 35.6 °F 28.0 °F 32.0 °F 87% 29.68 in 10.0 mi West 10.4 mph 16.1 mph N/A   Overcast
2:15 AM 35.6 °F 30.7 °F 32.0 °F 87% 29.68 in 10.0 mi West 5.8 mph - N/A   Overcast
2:35 AM 35.6 °F 28.0 °F 32.0 °F 87% 29.68 in 10.0 mi West 10.4 mph - N/A   Overcast
2:55 AM 35.6 °F 29.2 °F 32.0 °F 87% 29.68 in 7.0 mi West 8.1 mph - N/A   Overcast
3:15 AM 33.8 °F 26.4 °F 32.0 °F 93% 29.69 in 7.0 mi WSW 9.2 mph - N/A   Overcast
3:35 AM 33.8 °F 27.7 °F 32.0 °F 93% 29.69 in 7.0 mi West 6.9 mph - N/A   Overcast
3:55 AM 33.8 °F 25.8 °F 32.0 °F 93% 29.69 in 7.0 mi West 10.4 mph - N/A   Overcast
4:15 AM 33.8 °F 26.4 °F 30.2 °F 87% 29.68 in 7.0 mi West 9.2 mph - N/A   Overcast
4:35 AM 33.8 °F 26.4 °F 30.2 °F 87% 29.69 in 7.0 mi WNW 9.2 mph - N/A   Overcast
4:55 AM 33.8 °F 26.4 °F 30.2 °F 87% 29.69 in 10.0 mi West 9.2 mph - N/A   Overcast
5:15 AM 32.0 °F 25.6 °F 30.2 °F 93% 29.70 in 10.0 mi West 6.9 mph - N/A   Overcast
5:35 AM 32.0 °F 25.6 °F 28.4 °F 87% 29.70 in 10.0 mi WNW 6.9 mph - N/A   Overcast
5:55 AM 32.0 °F 24.2 °F 28.4 °F 87% 29.71 in 10.0 mi WNW 9.2 mph - N/A   Overcast
6:15 AM 32.0 °F 25.6 °F 30.2 °F 93% 29.72 in 10.0 mi West 6.9 mph - N/A   Overcast
6:55 AM 32.0 °F 24.8 °F 28.4 °F 87% 29.72 in 7.0 mi WNW 8.1 mph - N/A   Overcast
7:15 AM 32.0 °F 24.8 °F 28.4 °F 87% 29.72 in 10.0 mi WNW 8.1 mph - N/A   Overcast
7:35 AM 32.0 °F 26.4 °F 28.4 °F 87% 29.71 in 7.0 mi West 5.8 mph - N/A   Overcast
7:55 AM 32.0 °F 25.6 °F 28.4 °F 87% 29.71 in 7.0 mi NW 6.9 mph - N/A   Overcast
8:15 AM 32.0 °F 24.8 °F 28.4 °F 87% 29.71 in 7.0 mi WNW 8.1 mph - N/A   Overcast
8:35 AM 32.0 °F 25.6 °F 26.6 °F 80% 29.71 in 7.0 mi NW 6.9 mph - N/A   Overcast
8:55 AM 32.0 °F 24.8 °F 26.6 °F 80% 29.70 in 10.0 mi NW 8.1 mph - N/A   Overcast
9:15 AM 32.0 °F 26.4 °F 26.6 °F 80% 29.71 in 10.0 mi West 5.8 mph - N/A   Overcast
9:35 AM 32.0 °F 26.4 °F 26.6 °F 80% 29.71 in 10.0 mi WNW 5.8 mph - N/A   Overcast
9:55 AM 32.0 °F 26.4 °F 26.6 °F 80% 29.71 in 10.0 mi NW 5.8 mph - N/A   Overcast
10:15 AM 30.2 °F 22.6 °F 26.6 °F 86% 29.71 in 10.0 mi NW 8.1 mph - N/A   Overcast
10:35 AM 30.2 °F 22.6 °F 26.6 °F 86% 29.70 in 10.0 mi NNW 8.1 mph - N/A   Overcast
10:55 AM 30.2 °F 24.3 °F 26.6 °F 86% 29.70 in 10.0 mi West 5.8 mph - N/A   Overcast
11:15 AM 32.0 °F 27.5 °F 26.6 °F 80% 29.69 in 10.0 mi West 4.6 mph - N/A   Overcast
11:55 AM 32.0 °F - 26.6 °F 80% 29.68 in 10.0 mi Calm Calm - N/A   Overcast
12:15 PM 32.0 °F 26.4 °F 24.8 °F 75% 29.68 in 10.0 mi NW 5.8 mph - N/A   Overcast
12:35 PM 32.0 °F 26.4 °F 24.8 °F 75% 29.68 in 10.0 mi NW 5.8 mph - N/A   Overcast
12:55 PM 30.2 °F 24.3 °F 24.8 °F 80% 29.68 in 10.0 mi West 5.8 mph - N/A   Overcast
1:15 PM 30.2 °F 23.4 °F 24.8 °F 80% 29.68 in 10.0 mi West 6.9 mph - N/A   Overcast
1:35 PM 32.0 °F 28.7 °F 24.8 °F 75% 29.68 in 10.0 mi West 3.5 mph - N/A   Overcast
1:55 PM 32.0 °F 26.4 °F 24.8 °F 75% 29.68 in 10.0 mi West 5.8 mph - N/A   Overcast
2:15 PM 32.0 °F 28.7 °F 26.6 °F 80% 29.67 in 10.0 mi NW 3.5 mph - N/A   Overcast
2:35 PM 32.0 °F 26.4 °F 26.6 °F 80% 29.68 in 10.0 mi NW 5.8 mph - N/A   Overcast
2:55 PM 30.2 °F 23.4 °F 24.8 °F 80% 29.67 in 10.0 mi West 6.9 mph - N/A   Overcast
3:15 PM 32.0 °F 25.6 °F 24.8 °F 75% 29.68 in 10.0 mi West 6.9 mph - N/A   Overcast
3:35 PM 30.2 °F 22.6 °F 24.8 °F 80% 29.68 in 10.0 mi West 8.1 mph - N/A   Overcast
3:55 PM 30.2 °F 22.6 °F 24.8 °F 80% 29.69 in 10.0 mi West 8.1 mph - N/A   Overcast
6:15 PM 28.4 °F 21.2 °F 23.0 °F 80% 29.69 in 10.0 mi NNW 6.9 mph - N/A   Overcast
6:35 PM 28.4 °F 21.2 °F 23.0 °F 80% 29.69 in 10.0 mi NW 6.9 mph - N/A   Overcast
6:55 PM 28.4 °F 21.2 °F 23.0 °F 80% 29.69 in 10.0 mi NNW 6.9 mph - N/A   Overcast
7:15 PM 28.4 °F 20.4 °F 23.0 °F 80% 29.69 in 10.0 mi NNW 8.1 mph - N/A   Overcast
7:35 PM 28.4 °F 19.7 °F 23.0 °F 80% 29.69 in 10.0 mi NW 9.2 mph - N/A   Overcast
7:55 PM 28.4 °F 22.2 °F 23.0 °F 80% 29.69 in 10.0 mi NW 5.8 mph - N/A   Overcast
8:15 PM 28.4 °F 20.4 °F 23.0 °F 80% 29.69 in 10.0 mi NNW 8.1 mph - N/A   Overcast
8:55 PM 28.4 °F 23.3 °F 23.0 °F 80% 29.69 in 10.0 mi NW 4.6 mph - N/A   Overcast
9:15 PM 28.4 °F 23.3 °F 23.0 °F 80% 29.70 in 10.0 mi WNW 4.6 mph - N/A   Overcast
9:35 PM 28.4 °F 24.6 °F 23.0 °F 80% 29.70 in 10.0 mi WNW 3.5 mph - N/A   Overcast
9:55 PM 28.4 °F 24.6 °F 23.0 °F 80% 29.71 in 10.0 mi NNW 3.5 mph - N/A   Overcast
10:15 PM 28.4 °F 23.3 °F 23.0 °F 80% 29.71 in 10.0 mi North 4.6 mph - N/A   Overcast
10:35 PM 28.4 °F - 23.0 °F 80% 29.71 in 10.0 mi Calm Calm - N/A   Overcast
10:55 PM 28.4 °F - 23.0 °F 80% 29.71 in 10.0 mi Calm Calm - N/A   Overcast
11:15 PM 28.4 °F 24.6 °F 23.0 °F 80% 29.72 in 10.0 mi West 3.5 mph - N/A   Overcast
11:35 PM 28.4 °F - 23.0 °F 80% 29.71 in 10.0 mi Calm Calm - N/A   Overcast
11:55 PM 28.4 °F - 23.0 °F 80% 29.71 in 10.0 mi Calm Calm - N/A   Overcast